Time;durP1;ratioP1;P1;durP2;ratioP2;P2;SDS_P1;SDS_P2;PMS_P1;PMS_P2;Temp;Humidity;BMP_temperature;BMP_pressure;BME280_temperature;BME280_humidity;BME280_pressure;Samples;Min_cycle;Max_cycle;Signal;HPM_P1;HPM_P2
2022/12/21 00:00:08;;;;;;;4.63;3.20;;;;;;;;;;4981021;28;20089;-56
2022/12/21 00:02:34;;;;;;;5.28;3.05;;;;;;;;;;4973788;28;20054;-56
2022/12/21 00:04:59;;;;;;;4.55;3.25;;;;;;;;;;4973567;28;20046;-57
2022/12/21 00:07:24;;;;;;;8.65;2.92;;;;;;;;;;4972723;28;20038;-56
2022/12/21 00:09:50;;;;;;;4.95;3.35;;;;;;;;;;4972722;28;20075;-55
2022/12/21 00:12:15;;;;;;;4.90;3.10;;;;;;;;;;4956187;28;20030;-56
2022/12/21 00:14:40;;;;;;;4.85;3.03;;;;;;;;;;4978894;28;20057;-57
2022/12/21 00:17:05;;;;;;;4.18;3.13;;;;;;;;;;4970949;28;20034;-58
2022/12/21 00:19:31;;;;;;;5.53;3.42;;;;;;;;;;4975587;28;20038;-57
2022/12/21 00:21:56;;;;;;;6.72;3.33;;;;;;;;;;4974808;28;20062;-56
2022/12/21 00:24:22;;;;;;;5.50;3.00;;;;;;;;;;4978405;28;20108;-57
2022/12/21 00:26:47;;;;;;;5.00;2.92;;;;;;;;;;4974765;28;20063;-57
2022/12/21 00:29:12;;;;;;;4.55;2.67;;;;;;;;;;4975841;28;20014;-57
2022/12/21 00:31:40;;;;;;;6.63;3.33;;;;;;;;;;4979651;28;20532;-56
2022/12/21 00:34:06;;;;;;;6.07;2.90;;;;;;;;;;4972872;28;20110;-57
2022/12/21 00:36:31;;;;;;;6.20;2.90;;;;;;;;;;4971266;28;20121;-57
2022/12/21 00:38:56;;;;;;;5.43;3.08;;;;;;;;;;4975162;28;20054;-56
2022/12/21 00:41:22;;;;;;;4.53;3.10;;;;;;;;;;4978793;28;20489;-56
2022/12/21 00:43:47;;;;;;;6.35;2.90;;;;;;;;;;4974168;28;20522;-56
2022/12/21 00:46:16;;;;;;;6.65;3.00;;;;;;;;;;4972668;28;20033;-56
2022/12/21 00:48:42;;;;;;;4.70;3.00;;;;;;;;;;4982182;28;20094;-56
2022/12/21 00:51:08;;;;;;;4.78;2.97;;;;;;;;;;4984070;28;20027;-57
2022/12/21 00:53:33;;;;;;;3.78;2.55;;;;;;;;;;4981389;28;20022;-56
2022/12/21 00:55:59;;;;;;;3.85;2.63;;;;;;;;;;4981845;28;20564;-56
2022/12/21 00:58:24;;;;;;;4.60;2.92;;;;;;;;;;4980866;28;20029;-56
2022/12/21 01:00:53;;;;;;;5.40;2.67;;;;;;;;;;4982461;28;20367;-56
2022/12/21 01:03:18;;;;;;;4.60;3.10;;;;;;;;;;4970209;28;20099;-56
2022/12/21 01:05:46;;;;;;;3.35;2.50;;;;;;;;;;4975961;28;20121;-57
2022/12/21 01:08:12;;;;;;;3.92;2.20;;;;;;;;;;4976343;28;20575;-57
2022/12/21 01:10:37;;;;;;;5.88;2.40;;;;;;;;;;4977632;28;20030;-57
2022/12/21 01:13:02;;;;;;;3.92;2.60;;;;;;;;;;4979932;28;20019;-57
2022/12/21 01:15:27;;;;;;;4.32;2.63;;;;;;;;;;4980697;28;20444;-56
2022/12/21 01:17:53;;;;;;;5.10;2.63;;;;;;;;;;4982704;28;20552;-56
2022/12/21 01:20:18;;;;;;;4.13;2.60;;;;;;;;;;4975142;28;20027;-57
2022/12/21 01:22:43;;;;;;;3.05;2.08;;;;;;;;;;4980409;28;20018;-57
2022/12/21 01:25:08;;;;;;;3.30;2.08;;;;;;;;;;4972341;28;20055;-57
2022/12/21 01:27:34;;;;;;;4.28;2.35;;;;;;;;;;4977472;28;20097;-58
2022/12/21 01:29:59;;;;;;;3.70;2.50;;;;;;;;;;4976738;28;20593;-56
2022/12/21 01:32:24;;;;;;;2.72;2.10;;;;;;;;;;4980164;28;20105;-56
2022/12/21 01:34:49;;;;;;;3.83;2.45;;;;;;;;;;4976192;28;20019;-56
2022/12/21 01:37:15;;;;;;;4.55;2.13;;;;;;;;;;4974909;28;20033;-57
2022/12/21 01:39:42;;;;;;;2.72;2.08;;;;;;;;;;4980276;28;20380;-57
2022/12/21 01:42:10;;;;;;;2.70;2.10;;;;;;;;;;4977205;28;20030;-57
2022/12/21 01:44:54;;;;;;;3.08;2.10;;;;;;;;;;4974962;28;20158;-57
2022/12/21 01:47:20;;;;;;;3.50;2.40;;;;;;;;;;4975654;28;20103;-57
2022/12/21 01:49:46;;;;;;;4.07;2.67;;;;;;;;;;4956968;28;20681;-56
2022/12/21 01:52:11;;;;;;;4.53;2.80;;;;;;;;;;4959405;28;20034;-56
2022/12/21 01:54:38;;;;;;;5.95;2.88;;;;;;;;;;4980824;28;20018;-57
2022/12/21 01:57:04;;;;;;;3.70;2.35;;;;;;;;;;4967628;28;20054;-57
2022/12/21 01:59:33;;;;;;;4.88;2.92;;;;;;;;;;4968206;28;20050;-57
2022/12/21 02:01:59;;;;;;;3.97;2.85;;;;;;;;;;4977906;28;20022;-57
2022/12/21 02:04:24;;;;;;;5.28;3.03;;;;;;;;;;4965918;28;20034;-56
2022/12/21 02:06:56;;;;;;;3.97;2.85;;;;;;;;;;4976231;28;20486;-57
2022/12/21 02:09:22;;;;;;;3.88;2.58;;;;;;;;;;4982224;28;20037;-56
2022/12/21 02:11:47;;;;;;;3.25;2.38;;;;;;;;;;4955898;28;20152;-56
2022/12/21 02:14:12;;;;;;;4.80;2.10;;;;;;;;;;4965089;28;20025;-57
2022/12/21 02:16:47;;;;;;;4.07;2.13;;;;;;;;;;4974911;28;20030;-56
2022/12/21 02:19:24;;;;;;;3.00;2.20;;;;;;;;;;4974234;28;20361;-57
2022/12/21 02:21:53;;;;;;;4.07;2.50;;;;;;;;;;4974687;28;20485;-57
2022/12/21 02:24:24;;;;;;;2.83;1.98;;;;;;;;;;4962688;28;20352;-56
2022/12/21 02:26:55;;;;;;;4.00;2.30;;;;;;;;;;4975834;28;20477;-56
2022/12/21 02:29:35;;;;;;;6.60;2.50;;;;;;;;;;4982574;28;20076;-56
2022/12/21 02:32:05;;;;;;;2.97;2.17;;;;;;;;;;4977007;28;20125;-56
2022/12/21 02:34:33;;;;;;;3.80;2.08;;;;;;;;;;4964007;28;20120;-56
2022/12/21 02:37:01;;;;;;;3.42;2.20;;;;;;;;;;4971775;28;20485;-56
2022/12/21 02:39:45;;;;;;;3.72;2.08;;;;;;;;;;4975461;28;20041;-57
2022/12/21 02:45:35;;;;;;;3.53;2.15;;;;;;;;;;4981862;28;20080;-56
2022/12/21 02:48:00;;;;;;;5.22;2.75;;;;;;;;;;4945710;28;20126;-56
2022/12/21 02:50:27;;;;;;;3.50;2.30;;;;;;;;;;4982040;28;20105;-56
2022/12/21 02:52:52;;;;;;;5.38;2.47;;;;;;;;;;4977882;28;20515;-57
2022/12/21 02:55:17;;;;;;;3.67;2.70;;;;;;;;;;4977982;28;20030;-57
2022/12/21 02:57:43;;;;;;;3.35;2.38;;;;;;;;;;4977421;28;20022;-56
2022/12/21 03:00:09;;;;;;;3.50;2.30;;;;;;;;;;4975761;28;20080;-58
2022/12/21 03:02:37;;;;;;;4.10;2.10;;;;;;;;;;4977765;28;20026;-57
2022/12/21 03:05:12;;;;;;;3.10;1.77;;;;;;;;;;4976727;28;20019;-57
2022/12/21 03:07:44;;;;;;;2.60;1.90;;;;;;;;;;4967217;28;20096;-57
2022/12/21 03:10:18;;;;;;;1.95;1.60;;;;;;;;;;4953849;28;20027;-57
2022/12/21 03:12:43;;;;;;;2.25;1.60;;;;;;;;;;4976449;28;20078;-57
2022/12/21 03:15:18;;;;;;;6.28;2.10;;;;;;;;;;4975807;28;20034;-57
2022/12/21 03:18:02;;;;;;;1.60;1.50;;;;;;;;;;4963128;28;20027;-57
2022/12/21 03:20:28;;;;;;;2.45;1.83;;;;;;;;;;4977051;28;20037;-65
2022/12/21 03:23:23;;;;;;;4.90;2.30;;;;;;;;;;4959382;28;20018;-58
2022/12/21 03:25:49;;;;;;;3.13;2.28;;;;;;;;;;4909568;28;20044;-59
2022/12/21 03:28:15;;;;;;;3.60;2.50;;;;;;;;;;4978854;28;20037;-57
2022/12/21 03:30:45;;;;;;;4.25;2.30;;;;;;;;;;4970371;28;20030;-56
2022/12/21 03:33:14;;;;;;;5.85;2.65;;;;;;;;;;4951317;28;20030;-57
2022/12/21 03:35:41;;;;;;;2.55;1.80;;;;;;;;;;4976963;28;20045;-56
2022/12/21 03:38:08;;;;;;;3.15;2.00;;;;;;;;;;4980910;28;20083;-56
2022/12/21 03:40:34;;;;;;;3.50;2.00;;;;;;;;;;4977647;28;20033;-57
2022/12/21 03:43:01;;;;;;;2.33;1.75;;;;;;;;;;4975645;28;20019;-57
2022/12/21 03:45:30;;;;;;;4.32;1.70;;;;;;;;;;4965481;28;20034;-56
2022/12/21 03:47:58;;;;;;;3.72;1.92;;;;;;;;;;4959128;28;20029;-56
2022/12/21 03:50:24;;;;;;;5.97;1.80;;;;;;;;;;4980421;28;20037;-57
2022/12/21 03:52:50;;;;;;;3.10;1.58;;;;;;;;;;4967897;28;20027;-58
2022/12/21 03:55:26;;;;;;;1.88;1.40;;;;;;;;;;4947560;28;20030;-56
2022/12/21 03:57:52;;;;;;;4.60;1.63;;;;;;;;;;4963690;28;20022;-57
2022/12/21 04:00:17;;;;;;;2.72;1.60;;;;;;;;;;4964742;28;20065;-57
2022/12/21 04:02:48;;;;;;;2.63;1.67;;;;;;;;;;4950967;28;20109;-57
2022/12/21 04:05:20;;;;;;;4.32;2.13;;;;;;;;;;4959348;28;20029;-57
2022/12/21 04:07:45;;;;;;;4.30;2.33;;;;;;;;;;4973878;28;20080;-57
2022/12/21 04:10:12;;;;;;;4.05;2.22;;;;;;;;;;4979584;28;20112;-57
2022/12/21 04:12:37;;;;;;;3.08;2.20;;;;;;;;;;4967969;28;20180;-56
2022/12/21 04:15:12;;;;;;;2.78;2.10;;;;;;;;;;4974539;28;20117;-57
2022/12/21 04:17:37;;;;;;;3.40;2.33;;;;;;;;;;4972432;28;20448;-57
2022/12/21 04:20:03;;;;;;;3.85;2.47;;;;;;;;;;4982795;28;20035;-56
2022/12/21 04:28:09;;;;;;;5.00;2.08;;;;;;;;;;4979560;28;20053;-57
2022/12/21 04:30:35;;;;;;;2.70;1.70;;;;;;;;;;4982764;28;20461;-59
2022/12/21 04:33:00;;;;;;;3.10;2.38;;;;;;;;;;4980659;28;20049;-57
2022/12/21 04:35:28;;;;;;;4.07;2.38;;;;;;;;;;4980922;28;20448;-56
2022/12/21 04:37:54;;;;;;;5.80;2.53;;;;;;;;;;4975034;28;20026;-57
2022/12/21 04:40:21;;;;;;;4.63;2.45;;;;;;;;;;4980101;28;20068;-56
2022/12/21 04:42:47;;;;;;;3.40;2.50;;;;;;;;;;4979565;28;20038;-57
2022/12/21 04:45:12;;;;;;;4.18;2.70;;;;;;;;;;4979800;28;20124;-58
2022/12/21 04:47:37;;;;;;;4.10;2.80;;;;;;;;;;4975197;28;20026;-58
2022/12/21 04:50:03;;;;;;;6.05;2.80;;;;;;;;;;4981692;28;20089;-58
2022/12/21 04:52:29;;;;;;;3.65;2.47;;;;;;;;;;4969364;28;20177;-56
2022/12/21 04:54:55;;;;;;;4.75;2.90;;;;;;;;;;4974021;28;20026;-57
2022/12/21 04:57:20;;;;;;;3.58;2.45;;;;;;;;;;4986425;28;20696;-57
2022/12/21 04:59:45;;;;;;;3.80;2.35;;;;;;;;;;4980376;28;20516;-57
2022/12/21 05:02:11;;;;;;;3.97;2.42;;;;;;;;;;4976626;28;20034;-57
2022/12/21 05:04:36;;;;;;;3.83;2.45;;;;;;;;;;4976931;28;20023;-56
2022/12/21 05:07:01;;;;;;;3.17;2.20;;;;;;;;;;4974700;28;20035;-57
2022/12/21 05:09:27;;;;;;;2.95;1.90;;;;;;;;;;4968294;28;20015;-58
2022/12/21 05:11:52;;;;;;;4.35;2.38;;;;;;;;;;4958289;28;20493;-56
2022/12/21 05:14:18;;;;;;;5.13;2.50;;;;;;;;;;4974684;28;20062;-57
2022/12/21 05:16:43;;;;;;;5.75;2.47;;;;;;;;;;4961130;28;20032;-56
2022/12/21 05:19:08;;;;;;;4.65;2.47;;;;;;;;;;4981513;28;20026;-57
2022/12/21 05:21:33;;;;;;;6.45;2.40;;;;;;;;;;4958065;28;20034;-57
2022/12/21 05:23:58;;;;;;;3.85;2.10;;;;;;;;;;4976348;28;20046;-57
2022/12/21 05:26:24;;;;;;;4.72;2.40;;;;;;;;;;4978310;28;20038;-57
2022/12/21 05:28:49;;;;;;;6.57;2.47;;;;;;;;;;4978301;28;20390;-57
2022/12/21 05:31:15;;;;;;;4.40;2.40;;;;;;;;;;4969925;28;20030;-57
2022/12/21 05:33:40;;;;;;;6.07;2.28;;;;;;;;;;4976246;28;20108;-56
2022/12/21 05:36:07;;;;;;;4.30;2.53;;;;;;;;;;4981577;28;20046;-55
2022/12/21 05:38:32;;;;;;;5.50;2.60;;;;;;;;;;4982815;28;20033;-56
2022/12/21 05:40:57;;;;;;;6.22;2.15;;;;;;;;;;4974101;28;20113;-56
2022/12/21 05:43:23;;;;;;;4.28;2.10;;;;;;;;;;4978122;28;20027;-56
2022/12/21 05:45:48;;;;;;;2.63;1.83;;;;;;;;;;4966737;28;20027;-56
2022/12/21 05:48:13;;;;;;;3.47;2.05;;;;;;;;;;4979218;28;20022;-57
2022/12/21 05:50:39;;;;;;;8.38;2.08;;;;;;;;;;4979688;28;20376;-56
2022/12/21 05:53:04;;;;;;;3.95;1.85;;;;;;;;;;4979852;28;20170;-56
2022/12/21 05:55:30;;;;;;;3.45;1.83;;;;;;;;;;4977527;28;20344;-58
2022/12/21 05:57:55;;;;;;;3.10;1.80;;;;;;;;;;4980356;28;20019;-58
2022/12/21 06:00:21;;;;;;;2.08;1.55;;;;;;;;;;4970843;28;20050;-59
2022/12/21 06:02:46;;;;;;;1.73;1.27;;;;;;;;;;4964327;28;20034;-58
2022/12/21 06:05:11;;;;;;;4.13;1.40;;;;;;;;;;4977525;28;20469;-58
2022/12/21 06:07:36;;;;;;;1.63;1.40;;;;;;;;;;4962995;28;20034;-58
2022/12/21 06:10:02;;;;;;;1.67;1.45;;;;;;;;;;4974271;28;20185;-57
2022/12/21 06:12:27;;;;;;;3.03;1.60;;;;;;;;;;4978417;28;20026;-58
2022/12/21 06:14:53;;;;;;;1.63;1.50;;;;;;;;;;4964568;28;20027;-60
2022/12/21 06:17:18;;;;;;;3.63;1.65;;;;;;;;;;4974495;28;20109;-59
2022/12/21 06:19:43;;;;;;;7.55;1.58;;;;;;;;;;4980515;28;20161;-58
2022/12/21 06:22:08;;;;;;;2.92;1.95;;;;;;;;;;4979337;28;20034;-58
2022/12/21 06:24:34;;;;;;;1.63;1.50;;;;;;;;;;4977003;28;20073;-58
2022/12/21 06:26:59;;;;;;;2.33;1.55;;;;;;;;;;4981255;28;20481;-58
2022/12/21 06:29:24;;;;;;;3.38;1.48;;;;;;;;;;4982797;28;20595;-59
2022/12/21 06:31:49;;;;;;;5.28;1.70;;;;;;;;;;4979693;28;20027;-57
2022/12/21 06:34:15;;;;;;;5.45;1.60;;;;;;;;;;4974079;28;20037;-57
2022/12/21 06:36:40;;;;;;;3.75;1.58;;;;;;;;;;4974786;28;20560;-57
2022/12/21 06:39:05;;;;;;;5.43;3.78;;;;;;;;;;4975417;28;20034;-57
2022/12/21 06:41:30;;;;;;;5.88;3.60;;;;;;;;;;4977100;28;20091;-57
2022/12/21 06:43:56;;;;;;;2.85;1.48;;;;;;;;;;4963541;28;20022;-58
2022/12/21 06:46:27;;;;;;;3.75;1.83;;;;;;;;;;4955373;28;20265;-57
2022/12/21 06:48:53;;;;;;;7.72;2.80;;;;;;;;;;4976532;28;20105;-58
2022/12/21 06:51:19;;;;;;;1.73;1.60;;;;;;;;;;4959040;28;20109;-57
2022/12/21 06:53:45;;;;;;;2.25;1.73;;;;;;;;;;4972174;28;20015;-56
2022/12/21 06:56:11;;;;;;;2.38;1.58;;;;;;;;;;4971658;28;20037;-57
2022/12/21 06:58:36;;;;;;;3.08;1.60;;;;;;;;;;4979223;28;20030;-56
2022/12/21 07:01:05;;;;;;;3.00;1.98;;;;;;;;;;4979230;28;20097;-57
2022/12/21 07:03:30;;;;;;;5.90;1.55;;;;;;;;;;4976065;28;20030;-57
2022/12/21 07:05:58;;;;;;;2.92;1.67;;;;;;;;;;4974790;28;20042;-59
2022/12/21 07:08:23;;;;;;;2.72;1.60;;;;;;;;;;4964710;28;20056;-58
2022/12/21 07:10:49;;;;;;;2.80;1.90;;;;;;;;;;4974107;28;20528;-58
2022/12/21 07:13:14;;;;;;;2.35;1.65;;;;;;;;;;4981236;28;20038;-58
2022/12/21 07:15:39;;;;;;;3.72;2.20;;;;;;;;;;4969930;28;20220;-59
2022/12/21 07:18:07;;;;;;;3.33;1.80;;;;;;;;;;4979270;28;20058;-57
2022/12/21 07:20:32;;;;;;;4.43;1.80;;;;;;;;;;4981531;28;20304;-57
2022/12/21 07:22:58;;;;;;;3.60;1.90;;;;;;;;;;4976403;28;20309;-56
2022/12/21 07:25:23;;;;;;;3.60;2.40;;;;;;;;;;4924525;28;1354774;-56
2022/12/21 07:27:48;;;;;;;4.38;3.40;;;;;;;;;;4980657;28;20152;-56
2022/12/21 07:30:14;;;;;;;7.03;2.47;;;;;;;;;;4977176;28;20133;-55
2022/12/21 07:32:39;;;;;;;4.47;2.80;;;;;;;;;;4973850;28;20444;-59
2022/12/21 07:35:05;;;;;;;3.55;1.77;;;;;;;;;;4977192;28;20023;-56
2022/12/21 07:37:30;;;;;;;2.65;1.80;;;;;;;;;;4978246;28;20163;-57
2022/12/21 07:39:56;;;;;;;2.47;1.92;;;;;;;;;;4980130;28;20373;-58
2022/12/21 07:42:21;;;;;;;3.47;1.63;;;;;;;;;;4973604;28;20022;-57
2022/12/21 07:44:47;;;;;;;3.30;2.42;;;;;;;;;;4983899;28;20031;-59
2022/12/21 07:47:12;;;;;;;2.50;1.75;;;;;;;;;;4981989;28;20042;-57
2022/12/21 07:49:37;;;;;;;1.92;1.55;;;;;;;;;;4983478;28;20026;-56
2022/12/21 07:52:02;;;;;;;2.58;1.80;;;;;;;;;;4980452;28;20088;-57
2022/12/21 07:54:28;;;;;;;2.00;1.60;;;;;;;;;;4954217;28;20022;-57
2022/12/21 07:56:53;;;;;;;3.00;1.98;;;;;;;;;;4963651;28;20340;-55
2022/12/21 07:59:19;;;;;;;3.92;1.92;;;;;;;;;;4976942;28;20084;-57
2022/12/21 08:01:44;;;;;;;2.80;2.00;;;;;;;;;;4974551;28;20030;-56
2022/12/21 08:04:09;;;;;;;3.28;2.05;;;;;;;;;;4958465;28;20585;-58
2022/12/21 08:06:34;;;;;;;5.43;3.20;;;;;;;;;;4969654;28;20085;-56
2022/12/21 08:09:00;;;;;;;4.47;2.30;;;;;;;;;;4974399;28;20077;-58
2022/12/21 08:11:25;;;;;;;3.95;2.40;;;;;;;;;;4974296;28;20510;-58
2022/12/21 08:13:51;;;;;;;4.07;2.75;;;;;;;;;;4980056;28;20027;-58
2022/12/21 08:16:17;;;;;;;4.85;2.67;;;;;;;;;;4972393;28;20022;-57
2022/12/21 08:18:42;;;;;;;4.65;2.72;;;;;;;;;;4967657;28;20034;-57
2022/12/21 08:21:07;;;;;;;3.90;2.30;;;;;;;;;;4977881;28;20049;-57
2022/12/21 08:23:33;;;;;;;3.92;2.40;;;;;;;;;;4977790;28;20113;-57
2022/12/21 08:26:02;;;;;;;6.00;2.80;;;;;;;;;;4961161;28;20038;-56
2022/12/21 08:28:27;;;;;;;4.40;2.80;;;;;;;;;;4973159;28;20029;-57
2022/12/21 08:30:59;;;;;;;7.88;2.75;;;;;;;;;;4977170;28;20297;-57
2022/12/21 08:33:24;;;;;;;5.80;2.95;;;;;;;;;;4965934;28;20015;-57
2022/12/21 08:35:49;;;;;;;7.20;2.50;;;;;;;;;;4972514;28;20085;-57
2022/12/21 08:38:15;;;;;;;7.32;2.58;;;;;;;;;;4977111;28;20376;-57
2022/12/21 08:40:40;;;;;;;5.75;2.70;;;;;;;;;;4975861;28;20018;-57
2022/12/21 08:43:05;;;;;;;6.43;2.75;;;;;;;;;;4977083;28;20032;-57
2022/12/21 08:45:31;;;;;;;6.80;3.00;;;;;;;;;;4969125;28;20485;-57
2022/12/21 08:47:56;;;;;;;5.75;2.80;;;;;;;;;;4978843;28;20033;-58
2022/12/21 08:50:24;;;;;;;4.63;2.20;;;;;;;;;;4972026;28;20037;-57
2022/12/21 08:52:49;;;;;;;4.07;2.70;;;;;;;;;;4974790;28;20031;-58
2022/12/21 08:55:14;;;;;;;3.17;2.17;;;;;;;;;;4973347;28;20109;-58
2022/12/21 08:57:40;;;;;;;4.38;2.75;;;;;;;;;;4973182;28;20019;-63
2022/12/21 09:00:12;;;;;;;3.33;2.20;;;;;;;;;;4977355;28;20037;-56
2022/12/21 09:02:37;;;;;;;5.88;2.38;;;;;;;;;;4975770;28;20022;-60
2022/12/21 09:05:03;;;;;;;4.72;2.40;;;;;;;;;;4951387;28;20423;-58
2022/12/21 09:07:28;;;;;;;4.10;2.42;;;;;;;;;;4971557;28;20039;-58
2022/12/21 09:09:59;;;;;;;5.10;1.85;;;;;;;;;;4977019;28;20358;-57
2022/12/21 09:12:24;;;;;;;3.17;2.00;;;;;;;;;;4979795;28;20118;-58
2022/12/21 09:14:49;;;;;;;3.42;2.00;;;;;;;;;;4966936;28;20117;-57
2022/12/21 09:17:17;;;;;;;4.55;1.98;;;;;;;;;;4964051;28;20023;-58
2022/12/21 09:19:42;;;;;;;2.88;1.80;;;;;;;;;;4981941;28;20027;-57
2022/12/21 09:22:07;;;;;;;4.63;1.88;;;;;;;;;;4946523;28;20018;-57
2022/12/21 09:24:33;;;;;;;1.70;1.30;;;;;;;;;;4980650;28;20042;-57
2022/12/21 09:26:58;;;;;;;2.88;1.55;;;;;;;;;;4974524;28;20031;-57
2022/12/21 09:29:24;;;;;;;1.52;1.40;;;;;;;;;;4979641;28;20448;-57
2022/12/21 09:31:50;;;;;;;2.47;1.60;;;;;;;;;;4968283;28;20048;-56
2022/12/21 09:34:15;;;;;;;1.40;1.20;;;;;;;;;;4984041;28;20104;-57
2022/12/21 09:36:40;;;;;;;2.25;1.30;;;;;;;;;;4985378;28;20101;-57
2022/12/21 09:39:06;;;;;;;3.72;1.27;;;;;;;;;;4978887;28;20045;-59
2022/12/21 09:41:33;;;;;;;2.63;1.85;;;;;;;;;;4974064;28;20023;-57
2022/12/21 09:44:08;;;;;;;3.63;1.40;;;;;;;;;;4977973;28;20466;-58
2022/12/21 09:46:37;;;;;;;2.60;1.38;;;;;;;;;;4961548;28;20544;-59
2022/12/21 09:49:06;;;;;;;2.72;1.45;;;;;;;;;;4969305;28;20022;-58
2022/12/21 09:51:32;;;;;;;2.03;1.40;;;;;;;;;;4974956;28;20456;-58
2022/12/21 09:54:06;;;;;;;4.47;1.60;;;;;;;;;;4964114;28;20030;-58
2022/12/21 09:56:32;;;;;;;3.45;1.60;;;;;;;;;;4982694;28;20018;-58
2022/12/21 09:58:59;;;;;;;2.15;1.40;;;;;;;;;;4966110;28;20499;-59
2022/12/21 10:01:27;;;;;;;1.85;1.50;;;;;;;;;;4972411;28;20484;-58
2022/12/21 10:04:00;;;;;;;3.92;1.38;;;;;;;;;;4974951;28;20040;-58
2022/12/21 10:06:44;;;;;;;1.77;1.30;;;;;;;;;;4953755;28;20065;-59
2022/12/21 10:09:41;;;;;;;2.50;1.27;;;;;;;;;;4974680;28;21627;-58
2022/12/21 10:12:09;;;;;;;7.03;1.50;;;;;;;;;;4957346;28;20555;-57
2022/12/21 10:14:49;;;;;;;2.58;1.05;;;;;;;;;;4975544;28;20659;-57
2022/12/21 10:17:14;;;;;;;;;;;;;;;;;;4982480;28;20025;-57
2022/12/21 10:19:42;;;;;;;1.77;1.30;;;;;;;;;;4976491;28;20288;-57
2022/12/21 10:22:16;;;;;;;9.20;1.60;;;;;;;;;;4977547;28;20110;-57
2022/12/21 10:25:01;;;;;;;2.00;1.30;;;;;;;;;;4968761;28;20359;-57
2022/12/21 10:27:30;;;;;;;4.78;2.03;;;;;;;;;;4976253;28;20042;-57
2022/12/21 10:29:56;;;;;;;2.65;1.40;;;;;;;;;;4973531;28;20030;-57
2022/12/21 10:32:22;;;;;;;6.13;2.33;;;;;;;;;;4971283;28;20042;-57
2022/12/21 10:34:47;;;;;;;1.98;1.40;;;;;;;;;;4986753;28;20027;-56
2022/12/21 10:37:14;;;;;;;2.10;1.30;;;;;;;;;;4976708;28;20036;-56
2022/12/21 10:39:40;;;;;;;2.30;1.55;;;;;;;;;;4972260;28;20543;-56
2022/12/21 10:42:05;;;;;;;2.53;1.30;;;;;;;;;;4965315;28;20066;-56
2022/12/21 10:44:38;;;;;;;4.22;1.55;;;;;;;;;;4973910;28;20109;-57
2022/12/21 10:47:10;;;;;;;1.67;1.45;;;;;;;;;;4968401;28;20477;-57
2022/12/21 10:49:36;;;;;;;3.45;1.77;;;;;;;;;;4981450;28;20037;-57
2022/12/21 10:52:22;;;;;;;4.32;1.55;;;;;;;;;;4976568;28;20034;-57
2022/12/21 10:54:47;;;;;;;4.68;1.70;;;;;;;;;;4971923;28;20085;-57
2022/12/21 10:57:13;;;;;;;4.60;2.45;;;;;;;;;;4980273;28;20030;-57
2022/12/21 10:59:41;;;;;;;10.40;6.28;;;;;;;;;;4958059;28;20034;-57
2022/12/21 11:02:07;;;;;;;8.80;4.78;;;;;;;;;;4976204;28;20298;-57
2022/12/21 11:04:32;;;;;;;2.10;1.48;;;;;;;;;;4978115;28;20026;-57
2022/12/21 11:07:05;;;;;;;2.80;1.60;;;;;;;;;;4960659;28;20045;-56
2022/12/21 11:09:30;;;;;;;7.13;3.17;;;;;;;;;;4958979;28;20015;-57
2022/12/21 11:11:55;;;;;;;4.68;2.42;;;;;;;;;;4974008;28;20493;-56
2022/12/21 11:14:23;;;;;;;7.05;3.67;;;;;;;;;;4974862;28;20030;-57
2022/12/21 11:16:48;;;;;;;4.93;2.17;;;;;;;;;;4977665;28;20395;-57
2022/12/21 11:19:17;;;;;;;5.75;3.10;;;;;;;;;;4968412;28;20459;-56
2022/12/21 11:21:45;;;;;;;5.35;2.50;;;;;;;;;;4963841;28;20062;-56
2022/12/21 11:24:14;;;;;;;4.38;1.90;;;;;;;;;;4969279;28;20042;-56
2022/12/21 11:26:44;;;;;;;4.75;1.90;;;;;;;;;;4974630;28;20365;-58
2022/12/21 11:29:39;;;;;;;4.97;2.67;;;;;;;;;;4976834;28;20272;-57
2022/12/21 11:32:05;;;;;;;9.15;5.03;;;;;;;;;;4966048;28;20026;-58
2022/12/21 11:34:30;;;;;;;7.47;3.25;;;;;;;;;;4973635;28;20698;-56
2022/12/21 11:36:56;;;;;;;17.48;8.32;;;;;;;;;;4981094;28;20249;-56
2022/12/21 11:39:23;;;;;;;17.35;9.63;;;;;;;;;;4959037;28;20022;-55
2022/12/21 11:41:52;;;;;;;6.80;2.03;;;;;;;;;;4974281;28;20088;-55
2022/12/21 11:44:21;;;;;;;7.68;2.85;;;;;;;;;;4975058;28;20492;-55
2022/12/21 11:46:47;;;;;;;6.70;3.10;;;;;;;;;;4967762;28;20194;-55
2022/12/21 11:49:25;;;;;;;4.65;2.30;;;;;;;;;;4974653;28;20027;-54
2022/12/21 11:51:50;;;;;;;6.65;2.50;;;;;;;;;;4971323;28;20113;-56
2022/12/21 11:54:24;;;;;;;8.25;3.20;;;;;;;;;;4976606;28;20105;-54
2022/12/21 11:57:09;;;;;;;5.75;2.72;;;;;;;;;;4976663;28;20018;-55
2022/12/21 11:59:40;;;;;;;6.15;2.67;;;;;;;;;;4965107;28;20058;-55
2022/12/21 12:02:24;;;;;;;4.43;1.98;;;;;;;;;;4973495;28;20034;-55
2022/12/21 12:04:52;;;;;;;3.70;1.98;;;;;;;;;;4970040;28;20025;-55
2022/12/21 12:07:43;;;;;;;11.35;6.78;;;;;;;;;;4974250;28;20030;-55
2022/12/21 12:10:27;;;;;;;15.27;13.68;;;;;;;;;;4955913;28;20545;-57
2022/12/21 12:12:53;;;;;;;5.72;4.60;;;;;;;;;;4978368;28;20032;-56
2022/12/21 12:15:36;;;;;;;9.95;7.60;;;;;;;;;;4977012;28;20022;-56
2022/12/21 12:18:19;;;;;;;9.00;6.72;;;;;;;;;;4974854;28;20485;-56
2022/12/21 12:20:57;;;;;;;9.23;5.68;;;;;;;;;;4960804;28;20512;-56
2022/12/21 12:23:38;;;;;;;12.15;7.03;;;;;;;;;;4958233;28;20065;-56
2022/12/21 12:26:14;;;;;;;7.85;4.32;;;;;;;;;;4955954;28;20047;-55
2022/12/21 12:28:45;;;;;;;7.57;4.20;;;;;;;;;;4959319;28;20468;-56
2022/12/21 12:31:43;;;;;;;31.13;21.75;;;;;;;;;;4978274;28;20078;-57
2022/12/21 12:34:21;;;;;;;13.75;8.90;;;;;;;;;;4933907;28;20058;-56
2022/12/21 12:36:46;;;;;;;12.85;7.50;;;;;;;;;;4975255;28;20035;-54
2022/12/21 12:39:27;;;;;;;14.88;9.63;;;;;;;;;;4969398;28;20103;-56
2022/12/21 12:42:02;;;;;;;25.73;14.55;;;;;;;;;;4977361;28;20033;-57
2022/12/21 12:44:28;;;;;;;31.58;16.15;;;;;;;;;;4948660;28;20055;-57
2022/12/21 12:47:02;;;;;;;14.43;6.90;;;;;;;;;;4978807;28;20030;-55
2022/12/21 12:49:28;;;;;;;22.77;12.95;;;;;;;;;;4976479;28;20465;-55
2022/12/21 12:51:56;;;;;;;13.80;8.50;;;;;;;;;;4975335;28;20082;-55
2022/12/21 12:54:33;;;;;;;40.13;19.77;;;;;;;;;;4975046;28;20022;-59
2022/12/21 12:57:00;;;;;;;16.85;8.30;;;;;;;;;;4979509;28;20033;-55
2022/12/21 12:59:29;;;;;;;33.58;15.80;;;;;;;;;;4982292;28;20034;-58
2022/12/21 13:01:55;;;;;;;32.42;13.52;;;;;;;;;;4977901;28;20031;-56
2022/12/21 13:04:43;;;;;;;21.50;10.07;;;;;;;;;;4969386;28;20380;-56
2022/12/21 13:07:08;;;;;;;26.65;12.80;;;;;;;;;;4979595;28;20100;-57
2022/12/21 13:09:52;;;;;;;26.80;14.20;;;;;;;;;;4981263;28;20388;-57
2022/12/21 13:12:25;;;;;;;35.92;18.27;;;;;;;;;;4971450;28;20137;-56
2022/12/21 13:15:17;;;;;;;34.13;17.90;;;;;;;;;;4963177;28;20119;-56
2022/12/21 13:18:02;;;;;;;18.88;7.22;;;;;;;;;;4973307;28;20027;-55
2022/12/21 13:20:28;;;;;;;10.77;4.70;;;;;;;;;;4958167;28;20028;-58
2022/12/21 13:22:54;;;;;;;4.40;1.88;;;;;;;;;;4979041;28;20363;-56
2022/12/21 13:25:25;;;;;;;13.90;4.95;;;;;;;;;;4968496;28;20204;-56
2022/12/21 13:27:51;;;;;;;51.65;21.20;;;;;;;;;;4980113;28;20501;-56
2022/12/21 13:30:17;;;;;;;20.13;6.95;;;;;;;;;;4961604;28;20057;-56
2022/12/21 13:32:47;;;;;;;25.45;10.75;;;;;;;;;;4964802;28;20079;-56
2022/12/21 13:35:30;;;;;;;5.63;1.88;;;;;;;;;;4957967;28;20026;-56
2022/12/21 13:38:00;;;;;;;10.38;4.45;;;;;;;;;;4973950;28;20062;-57
2022/12/21 13:40:30;;;;;;;7.93;2.10;;;;;;;;;;4966050;28;20117;-56
2022/12/21 13:43:01;;;;;;;10.35;3.28;;;;;;;;;;4966851;28;20086;-57
2022/12/21 13:45:45;;;;;;;8.15;2.53;;;;;;;;;;4968579;28;20627;-57
2022/12/21 13:48:17;;;;;;;7.32;2.10;;;;;;;;;;4986197;28;20084;-57
2022/12/21 13:50:53;;;;;;;15.88;4.13;;;;;;;;;;4979471;28;20026;-56
2022/12/21 13:53:24;;;;;;;7.82;1.98;;;;;;;;;;4977375;28;20026;-56
2022/12/21 13:56:08;;;;;;;8.50;3.33;;;;;;;;;;4975995;28;20112;-56
2022/12/21 13:58:42;;;;;;;6.93;2.08;;;;;;;;;;4974269;28;20015;-56
2022/12/21 14:01:26;;;;;;;8.27;2.70;;;;;;;;;;4975381;28;20042;-58
2022/12/21 14:03:53;;;;;;;4.75;1.80;;;;;;;;;;4979359;28;20069;-57
2022/12/21 14:06:32;;;;;;;4.55;1.80;;;;;;;;;;4979485;28;20325;-56
2022/12/21 14:09:16;;;;;;;3.23;1.50;;;;;;;;;;4966439;28;20030;-57
2022/12/21 14:11:49;;;;;;;54.88;16.58;;;;;;;;;;4977325;28;20019;-57
2022/12/21 14:14:21;;;;;;;13.77;3.92;;;;;;;;;;4974389;28;20047;-57
2022/12/21 14:16:46;;;;;;;6.32;1.77;;;;;;;;;;4971970;28;20088;-56
2022/12/21 14:19:12;;;;;;;5.80;2.03;;;;;;;;;;4959794;28;20023;-56
2022/12/21 14:21:42;;;;;;;6.13;2.10;;;;;;;;;;4962389;28;20030;-56
2022/12/21 14:24:21;;;;;;;4.85;1.73;;;;;;;;;;4976503;28;20043;-56
2022/12/21 14:26:59;;;;;;;9.00;3.28;;;;;;;;;;4975485;28;20125;-57
2022/12/21 14:29:30;;;;;;;5.38;2.03;;;;;;;;;;4962749;28;20045;-56
2022/12/21 14:31:55;;;;;;;;;;;;;;;;;;4966699;28;20027;-57
2022/12/21 14:34:20;;;;;;;8.18;2.30;;;;;;;;;;4979851;28;19917;-56
2022/12/21 14:37:05;;;;;;;6.40;2.28;;;;;;;;;;4973397;28;20323;-56
2022/12/21 14:39:35;;;;;;;4.57;2.60;;;;;;;;;;4975080;28;20433;-56
2022/12/21 14:42:19;;;;;;;5.35;3.05;;;;;;;;;;4963255;28;20418;-57
2022/12/21 14:45:03;;;;;;;7.85;3.03;;;;;;;;;;4973749;28;20031;-56
2022/12/21 14:47:28;;;;;;;5.47;2.75;;;;;;;;;;4971463;28;20034;-57
2022/12/21 14:49:53;;;;;;;10.07;3.67;;;;;;;;;;4978259;28;20363;-57
2022/12/21 14:52:19;;;;;;;10.07;2.40;;;;;;;;;;4975099;28;20037;-56
2022/12/21 14:54:44;;;;;;;6.80;2.40;;;;;;;;;;4977709;28;20023;-56
2022/12/21 14:57:10;;;;;;;5.97;2.80;;;;;;;;;;4974872;28;20065;-57